Time;durP1;ratioP1;P1;durP2;ratioP2;P2;SDS_P1;SDS_P2;PMS_P1;PMS_P2;Temp;Humidity;BMP_temperature;BMP_pressure;BME280_temperature;BME280_humidity;BME280_pressure;Samples;Min_cycle;Max_cycle;Signal;HPM_P1;HPM_P2
2024/01/02 00:04:57;;;;;;;37.50;20.27;;;4.80;1.00;;;;;;10393655;28;20567;-83
2024/01/02 00:10:18;;;;;;;40.97;21.67;;;4.80;1.00;;;;;;10380297;28;20282;-82
2024/01/02 00:15:39;;;;;;;41.77;21.13;;;4.80;1.00;;;;;;10408307;28;20268;-83
2024/01/02 00:21:02;;;;;;;35.60;19.23;;;4.80;1.00;;;;;;10394420;28;20291;-82
2024/01/02 00:26:23;;;;;;;34.37;20.03;;;4.70;1.00;;;;;;10420187;28;20383;-81
2024/01/02 00:31:44;;;;;;;34.57;19.37;;;4.70;1.00;;;;;;10421173;28;20278;-83
2024/01/02 00:37:06;;;;;;;36.73;18.40;;;4.70;1.00;;;;;;10434971;28;20275;-85
2024/01/02 00:42:28;;;;;;;36.87;18.67;;;4.70;1.00;;;;;;10420887;28;20207;-83
2024/01/02 00:47:51;;;;;;;34.77;18.20;;;4.70;59.70;;;;;;10427821;28;20229;-82
2024/01/02 00:53:13;;;;;;;34.93;18.30;;;4.70;15.70;;;;;;10427237;28;20231;-84
2024/01/02 00:58:34;;;;;;;36.97;18.67;;;4.70;1.00;;;;;;10400020;28;20218;-82
2024/01/02 01:03:56;;;;;;;33.80;18.13;;;4.70;48.30;;;;;;10386556;28;20389;-83
2024/01/02 01:09:17;;;;;;;39.07;21.67;;;4.70;43.90;;;;;;10399952;28;20272;-83
2024/01/02 01:14:38;;;;;;;35.73;19.97;;;4.70;17.20;;;;;;10385958;28;20212;-83
2024/01/02 01:20:00;;;;;;;38.10;20.47;;;4.70;17.70;;;;;;10399964;28;20199;-82
2024/01/02 01:25:21;;;;;;;37.67;19.50;;;4.70;95.80;;;;;;10389812;28;20246;-86
2024/01/02 01:30:44;;;;;;;40.97;21.03;;;4.70;95.10;;;;;;10440698;28;20228;-83
2024/01/02 01:36:05;;;;;;;42.43;22.63;;;4.70;90.40;;;;;;10425762;28;20204;-82
2024/01/02 01:41:27;;;;;;;42.33;22.47;;;4.60;72.20;;;;;;10425732;28;20196;-82
2024/01/02 01:46:49;;;;;;;38.20;21.43;;;4.60;99.90;;;;;;10439837;28;20520;-81
2024/01/02 01:52:11;;;;;;;39.33;20.27;;;4.60;99.90;;;;;;10439362;28;20187;-85
2024/01/02 01:57:33;;;;;;;36.33;19.70;;;4.60;99.90;;;;;;10424211;28;20214;-83
2024/01/02 02:02:55;;;;;;;37.23;19.83;;;4.60;99.90;;;;;;10439204;28;20214;-85
2024/01/02 02:08:16;;;;;;;31.03;17.80;;;4.60;99.90;;;;;;10438799;28;20377;-81
2024/01/02 02:13:38;;;;;;;32.30;16.80;;;4.60;99.90;;;;;;10424762;28;20208;-85
2024/01/02 02:18:59;;;;;;;31.07;17.27;;;4.60;99.90;;;;;;10438203;28;20223;-81
2024/01/02 02:24:21;;;;;;;29.33;16.73;;;4.60;99.90;;;;;;10423084;28;20556;-81
2024/01/02 02:29:42;;;;;;;31.80;17.73;;;4.60;99.90;;;;;;10382971;28;20252;-82
2024/01/02 02:35:05;;;;;;;30.27;18.00;;;4.70;99.90;;;;;;10382690;28;20204;-83
2024/01/02 02:40:26;;;;;;;33.90;18.47;;;4.70;99.90;;;;;;10382780;28;20224;-81
2024/01/02 02:45:48;;;;;;;33.70;19.40;;;4.70;99.90;;;;;;10397081;28;20266;-81
2024/01/02 02:51:10;;;;;;;37.40;19.77;;;4.70;99.90;;;;;;10416146;28;20239;-81
2024/01/02 02:56:31;;;;;;;35.90;18.20;;;4.70;99.90;;;;;;10433547;28;20549;-82
2024/01/02 03:01:53;;;;;;;32.80;17.00;;;4.70;99.90;;;;;;10422747;28;20195;-82
2024/01/02 03:07:14;;;;;;;31.70;17.70;;;4.80;99.90;;;;;;10408409;28;20483;-82
2024/01/02 03:12:36;;;;;;;29.03;16.53;;;4.70;99.90;;;;;;10422374;28;20192;-82
2024/01/02 03:17:57;;;;;;;22.90;14.77;;;4.70;99.90;;;;;;10436274;28;20262;-82
2024/01/02 03:23:18;;;;;;;23.13;14.00;;;4.80;99.90;;;;;;10423308;28;20238;-80
2024/01/02 03:28:40;;;;;;;22.53;13.40;;;4.70;99.90;;;;;;10408541;28;20246;-81
2024/01/02 03:34:02;;;;;;;20.80;12.97;;;4.70;99.90;;;;;;10435821;28;20556;-81
2024/01/02 03:39:23;;;;;;;20.23;13.20;;;4.80;99.90;;;;;;10384850;28;20509;-81
2024/01/02 03:44:44;;;;;;;24.63;14.27;;;4.70;99.90;;;;;;10394683;28;20270;-82
2024/01/02 03:50:06;;;;;;;25.30;14.90;;;4.70;94.40;;;;;;10405197;28;20232;-81
2024/01/02 03:55:27;;;;;;;20.67;12.13;;;4.70;99.90;;;;;;10402266;28;20254;-82
2024/01/02 04:00:53;;;;;;;20.77;12.43;;;4.70;99.90;;;;;;10387038;28;20203;-82
2024/01/02 04:06:14;;;;;;;20.07;12.60;;;4.80;99.90;;;;;;10421450;28;20206;-81
2024/01/02 04:11:36;;;;;;;25.50;14.07;;;4.70;99.90;;;;;;10407644;28;20204;-81
2024/01/02 04:16:57;;;;;;;21.27;12.93;;;4.80;99.90;;;;;;10407424;28;20223;-82
2024/01/02 04:22:18;;;;;;;22.27;13.27;;;4.80;99.90;;;;;;10408666;28;20210;-82
2024/01/02 04:27:39;;;;;;;23.50;13.47;;;4.80;99.90;;;;;;10421013;28;20537;-84
2024/01/02 04:33:01;;;;;;;24.70;14.90;;;4.80;99.90;;;;;;10414560;28;20503;-81
2024/01/02 04:38:22;;;;;;;20.40;13.03;;;4.80;99.90;;;;;;10442266;28;20214;-82
2024/01/02 04:43:44;;;;;;;18.57;12.13;;;4.80;99.90;;;;;;10441938;28;20207;-84
2024/01/02 04:49:05;;;;;;;20.23;12.43;;;4.80;59.40;;;;;;10441716;28;20226;-83
2024/01/02 04:54:26;;;;;;;17.33;11.77;;;4.80;77.60;;;;;;10414185;28;20250;-83
2024/01/02 04:59:48;;;;;;;30.83;17.83;;;4.80;74.60;;;;;;10400625;28;20277;-83
2024/01/02 05:05:09;;;;;;;23.67;15.33;;;4.80;57.10;;;;;;10427744;28;20191;-82
2024/01/02 05:10:31;;;;;;;19.80;12.13;;;4.80;66.30;;;;;;10413279;28;20592;-84
2024/01/02 05:15:52;;;;;;;18.30;10.43;;;4.80;53.10;;;;;;10426658;28;20192;-82
2024/01/02 05:21:14;;;;;;;14.20;9.40;;;4.80;29.60;;;;;;10425883;28;20192;-81
2024/01/02 05:26:36;;;;;;;16.80;11.10;;;4.90;40.60;;;;;;10409836;28;20220;-84
2024/01/02 05:31:57;;;;;;;18.67;11.73;;;4.90;10.00;;;;;;10425589;28;20505;-82
2024/01/02 05:37:18;;;;;;;16.13;10.40;;;4.90;1.00;;;;;;10391729;28;20210;-81
2024/01/02 05:42:40;;;;;;;16.80;10.40;;;4.80;1.00;;;;;;10391825;28;20308;-83
2024/01/02 05:48:01;;;;;;;19.43;12.57;;;4.90;18.80;;;;;;10426161;28;20250;-84
2024/01/02 05:53:23;;;;;;;15.57;11.40;;;4.80;1.00;;;;;;10419628;28;20244;-84
2024/01/02 05:58:45;;;;;;;21.13;11.80;;;4.80;1.00;;;;;;10384796;28;20258;-81
2024/01/02 06:04:06;;;;;;;22.10;13.37;;;4.90;1.00;;;;;;10417641;28;20198;-82
2024/01/02 06:09:27;;;;;;;51.60;26.00;;;4.80;1.00;;;;;;10411141;28;20227;-83
2024/01/02 06:14:49;;;;;;;106.00;44.27;;;4.80;1.00;;;;;;10424648;28;20218;-81
2024/01/02 06:20:11;;;;;;;80.70;34.13;;;4.80;1.00;;;;;;10425036;28;20249;-83
2024/01/02 06:25:33;;;;;;;29.73;16.87;;;4.80;14.10;;;;;;10424150;28;20208;-84
2024/01/02 06:30:55;;;;;;;35.37;22.83;;;4.80;35.60;;;;;;10410024;28;20231;-81
2024/01/02 06:36:16;;;;;;;29.57;20.13;;;4.80;71.00;;;;;;10423605;28;20207;-81
2024/01/02 06:41:38;;;;;;;23.53;16.37;;;4.80;83.50;;;;;;10437158;28;20218;-81
2024/01/02 06:46:59;;;;;;;24.03;17.20;;;4.80;70.00;;;;;;10437435;28;20406;-84
2024/01/02 06:52:21;;;;;;;22.10;14.63;;;4.80;63.30;;;;;;10423499;28;20238;-84
2024/01/02 06:57:43;;;;;;;24.17;15.37;;;4.80;73.60;;;;;;10398497;28;20294;-84
2024/01/02 07:03:04;;;;;;;19.17;12.63;;;4.80;58.90;;;;;;10406538;28;20204;-82
2024/01/02 07:08:25;;;;;;;18.43;11.57;;;4.80;28.90;;;;;;10408891;28;20304;-82
2024/01/02 07:13:46;;;;;;;34.10;17.20;;;4.80;34.80;;;;;;10408483;28;20199;-83
2024/01/02 07:19:08;;;;;;;29.20;15.93;;;4.80;25.30;;;;;;10422582;28;20595;-84
2024/01/02 07:24:31;;;;;;;22.57;14.97;;;4.80;63.60;;;;;;10377740;28;20236;-82
2024/01/02 07:29:52;;;;;;;41.70;22.90;;;4.80;99.90;;;;;;10391511;28;20240;-82
2024/01/02 07:35:14;;;;;;;31.27;17.30;;;4.90;76.10;;;;;;10397802;28;20214;-81
2024/01/02 07:40:35;;;;;;;25.70;15.10;;;4.90;33.40;;;;;;10435394;28;20209;-82
2024/01/02 07:45:57;;;;;;;21.47;14.20;;;4.80;56.10;;;;;;10418660;28;20195;-85
2024/01/02 07:51:18;;;;;;;21.87;12.47;;;4.80;98.70;;;;;;10361300;28;20260;-81
2024/01/02 07:56:40;;;;;;;19.10;12.30;;;4.90;99.90;;;;;;10420359;28;20413;-80
2024/01/02 08:02:01;;;;;;;21.37;12.23;;;4.90;73.10;;;;;;10424940;28;20224;-81
2024/01/02 08:07:23;;;;;;;20.13;12.70;;;5.00;39.60;;;;;;10438623;28;20269;-79
2024/01/02 08:12:44;;;;;;;23.80;12.93;;;5.00;37.30;;;;;;10423990;28;20204;-79
2024/01/02 08:18:06;;;;;;;36.93;16.23;;;5.10;1.00;;;;;;10424418;28;20196;-80
2024/01/02 08:23:28;;;;;;;34.33;18.83;;;5.10;1.00;;;;;;10423856;28;20206;-83
2024/01/02 08:28:49;;;;;;;28.87;15.63;;;5.10;1.00;;;;;;10437831;28;20236;-81
2024/01/02 08:34:10;;;;;;;18.33;11.57;;;5.10;1.00;;;;;;10423793;28;20382;-78
2024/01/02 08:39:31;;;;;;;20.93;13.10;;;5.10;1.00;;;;;;10437732;28;20436;-80
2024/01/02 08:44:52;;;;;;;30.50;17.20;;;5.10;1.00;;;;;;10461032;28;20381;-85
2024/01/02 08:50:14;;;;;;;39.40;18.03;;;5.10;4.80;;;;;;10431634;28;20618;-81
2024/01/02 08:55:36;;;;;;;36.00;18.53;;;5.20;1.00;;;;;;10458715;28;20497;-81
2024/01/02 09:00:57;;;;;;;54.00;26.33;;;5.30;1.00;;;;;;10455439;28;20452;-84
2024/01/02 09:06:19;;;;;;;73.80;32.03;;;5.30;1.00;;;;;;10418638;28;20386;-87
2024/01/02 09:11:41;;;;;;;55.77;26.83;;;5.40;1.00;;;;;;10422858;28;20227;-90
2024/01/02 09:17:03;;;;;;;37.77;21.93;;;5.50;1.00;;;;;;10440350;28;20416;-83
2024/01/02 09:22:24;;;;;;;30.30;19.03;;;5.50;1.00;;;;;;10419062;28;20216;-79
2024/01/02 09:27:48;;;;;;;25.47;13.73;;;5.60;99.90;;;;;;10412643;28;20250;-83
2024/01/02 09:33:10;;;;;;;18.17;9.10;;;5.60;99.90;;;;;;10419528;28;20420;-81
2024/01/02 09:38:31;;;;;;;36.17;14.47;;;5.70;1.00;;;;;;10435118;28;20207;-82
2024/01/02 09:44:04;;;;;;;38.47;15.27;;;5.70;1.00;;;;;;10436683;28;20201;-82
2024/01/02 09:49:26;;;;;;;29.57;14.17;;;5.80;1.00;;;;;;10390143;28;20304;-84
2024/01/02 09:55:02;;;;;;;20.83;11.10;;;5.90;1.00;;;;;;10429859;28;20235;-83
2024/01/02 10:00:55;;;;;;;37.50;16.23;;;6.00;1.00;;;;;;10427623;28;20205;-79
2024/01/02 10:06:19;;;;;;;32.97;14.37;;;6.10;1.00;;;;;;10439096;28;20194;-81
2024/01/02 10:11:53;;;;;;;14.93;9.13;;;6.10;99.90;;;;;;10428893;28;20231;-79
2024/01/02 10:17:32;;;;;;;14.47;8.57;;;6.00;21.80;;;;;;10452267;28;20193;-80
2024/01/02 10:23:20;;;;;;;13.43;8.87;;;5.90;99.90;;;;;;10443622;28;20193;-81
2024/01/02 10:28:43;;;;;;;9.90;5.77;;;6.00;1.00;;;;;;10446953;28;20220;-86
2024/01/02 10:34:10;;;;;;;20.57;8.90;;;6.10;99.90;;;;;;10467716;28;20396;-79
2024/01/02 10:39:38;;;;;;;18.20;9.63;;;6.10;1.00;;;;;;10432693;28;20200;-79
2024/01/02 10:45:16;;;;;;;26.17;14.23;;;6.10;1.00;;;;;;10433609;28;20247;-80
2024/01/02 10:50:50;;;;;;;17.20;10.87;;;6.20;1.00;;;;;;10415992;28;20526;-87
2024/01/02 10:56:19;;;;;;;11.83;8.03;;;6.10;99.90;;;;;;10410517;28;20230;-80
2024/01/02 11:01:46;;;;;;;17.83;8.60;;;6.00;1.00;;;;;;10460395;28;20269;-82
2024/01/02 11:07:10;;;;;;;15.73;8.33;;;6.00;1.00;;;;;;10409840;28;20275;-87
2024/01/02 11:12:45;;;;;;;22.47;12.73;;;6.10;1.00;;;;;;10446221;28;20197;-79
2024/01/02 11:18:07;;;;;;;49.17;29.10;;;6.00;1.00;;;;;;10431900;28;20200;-82
2024/01/02 11:23:40;;;;;;;18.00;12.47;;;6.10;1.00;;;;;;10437695;28;20205;-82
2024/01/02 11:29:28;;;;;;;44.67;27.00;;;5.90;99.90;;;;;;10478585;28;20327;-91
2024/01/02 11:34:59;;;;;;;25.40;13.93;;;5.80;1.00;;;;;;10445103;28;20425;-85
2024/01/02 11:40:34;;;;;;;12.47;8.70;;;5.70;99.90;;;;;;10421785;28;20211;-82
2024/01/02 11:45:59;;;;;;;12.60;7.67;;;5.60;1.00;;;;;;10432045;28;20187;-81
2024/01/02 11:51:30;;;;;;;18.83;10.83;;;5.70;23.10;;;;;;10431374;28;20238;-83
2024/01/02 11:56:52;;;;;;;37.60;19.13;;;5.60;78.20;;;;;;10454571;28;20235;-81
2024/01/02 12:02:39;;;;;;;38.47;19.60;;;5.50;1.00;;;;;;10417500;28;20227;-81
2024/01/02 12:08:03;;;;;;;40.33;22.47;;;5.30;1.00;;;;;;10434510;28;20414;-84
2024/01/02 12:13:30;;;;;;;40.87;23.83;;;5.20;1.00;;;;;;10464293;28;20195;-82
2024/01/02 12:18:52;;;;;;;42.97;23.60;;;5.10;99.90;;;;;;10424667;28;20210;-85
2024/01/02 12:24:16;;;;;;;41.03;24.60;;;5.10;1.00;;;;;;10418769;28;20204;-87
2024/01/02 12:29:48;;;;;;;39.30;22.23;;;5.10;1.00;;;;;;10435301;28;20242;-83
2024/01/02 12:35:22;;;;;;;43.37;24.83;;;5.10;1.00;;;;;;10415195;28;20269;-80
2024/01/02 12:40:46;;;;;;;32.47;18.80;;;5.10;1.00;;;;;;10422041;28;20214;-79
2024/01/02 12:46:19;;;;;;;37.30;22.00;;;5.10;1.00;;;;;;10438267;28;20205;-81
2024/01/02 12:51:45;;;;;;;41.00;22.60;;;5.10;1.00;;;;;;10432801;28;20230;-81
2024/01/02 12:57:07;;;;;;;38.10;23.00;;;5.00;1.00;;;;;;10407576;28;20301;-82
2024/01/02 13:02:34;;;;;;;31.70;19.27;;;4.90;1.00;;;;;;10437299;28;20211;-81
2024/01/02 13:07:55;;;;;;;34.27;21.33;;;4.90;1.00;;;;;;10423734;28;20254;-81
2024/01/02 13:13:17;;;;;;;39.20;22.43;;;4.90;1.00;;;;;;10434959;28;20278;-82
2024/01/02 13:18:38;;;;;;;46.47;24.60;;;4.90;1.00;;;;;;10425615;28;20207;-81
2024/01/02 13:24:03;;;;;;;48.77;24.03;;;4.90;1.00;;;;;;10417183;28;20231;-81
2024/01/02 13:29:24;;;;;;;42.17;25.03;;;4.90;1.00;;;;;;10456785;28;20469;-80
2024/01/02 13:34:45;;;;;;;50.83;26.00;;;4.80;1.00;;;;;;10441191;28;20249;-80
2024/01/02 13:40:17;;;;;;;48.57;25.33;;;4.80;1.00;;;;;;10455559;28;20757;-79
2024/01/02 13:45:39;;;;;;;46.80;25.03;;;4.70;1.00;;;;;;10433659;28;20197;-79
2024/01/02 13:51:03;;;;;;;48.93;26.07;;;4.70;1.00;;;;;;10425761;28;20322;-80
2024/01/02 13:56:24;;;;;;;52.30;25.97;;;4.70;1.00;;;;;;10440848;28;20329;-79
2024/01/02 14:01:50;;;;;;;44.60;23.87;;;4.70;1.00;;;;;;10450452;28;20259;-82
2024/01/02 14:07:12;;;;;;;53.03;26.07;;;4.60;1.00;;;;;;10432291;28;20206;-80
2024/01/02 14:12:44;;;;;;;50.40;28.13;;;4.60;1.00;;;;;;10437959;28;20249;-80
2024/01/02 14:18:07;;;;;;;45.73;25.70;;;4.60;1.00;;;;;;10441072;28;20319;-87
2024/01/02 14:23:55;;;;;;;48.37;26.33;;;4.50;1.00;;;;;;10412455;28;20203;-83
2024/01/02 14:29:26;;;;;;;50.13;25.17;;;4.50;1.00;;;;;;10432322;28;20298;-79
2024/01/02 14:35:10;;;;;;;46.00;24.43;;;4.50;1.00;;;;;;10454329;28;20233;-82
2024/01/02 14:40:50;;;;;;;50.60;24.43;;;4.50;1.00;;;;;;10457352;28;20222;-79
2024/01/02 14:46:38;;;;;;;40.83;23.30;;;4.40;1.00;;;;;;10471513;28;20277;-85
2024/01/02 14:52:20;;;;;;;48.53;26.90;;;4.40;1.00;;;;;;10466276;28;20245;-82
2024/01/02 14:57:46;;;;;;;46.10;27.07;;;4.50;1.00;;;;;;10457884;28;20553;-81
2024/01/02 15:03:33;;;;;;;50.70;27.97;;;4.50;1.00;;;;;;10445116;28;20497;-79
2024/01/02 15:09:08;;;;;;;48.67;28.80;;;4.40;1.00;;;;;;10441010;28;20238;-81
2024/01/02 15:14:48;;;;;;;57.53;30.60;;;4.50;1.00;;;;;;10450136;28;20407;-81
2024/01/02 15:20:22;;;;;;;59.63;31.40;;;4.40;1.00;;;;;;10403246;28;20213;-82
2024/01/02 15:25:59;;;;;;;54.00;29.43;;;4.40;1.00;;;;;;10410595;28;20191;-81
2024/01/02 15:31:27;;;;;;;61.87;31.70;;;4.40;1.00;;;;;;10435581;28;20242;-79
2024/01/02 15:36:52;;;;;;;54.53;31.80;;;4.40;1.00;;;;;;10432528;28;20199;-81
2024/01/02 15:42:34;;;;;;;53.47;29.77;;;4.40;1.00;;;;;;10408802;28;20251;-82
2024/01/02 15:48:19;;;;;;;59.90;33.47;;;4.40;1.00;;;;;;10423256;28;20198;-79
2024/01/02 15:53:52;;;;;;;43.63;26.23;;;4.30;1.00;;;;;;10438765;28;20280;-79
2024/01/02 15:59:27;;;;;;;46.67;27.30;;;4.30;1.00;;;;;;10398711;28;20215;-78
2024/01/02 16:05:10;;;;;;;41.90;25.70;;;4.20;1.00;;;;;;10434800;28;20198;-79
2024/01/02 16:10:45;;;;;;;43.67;24.33;;;4.20;1.00;;;;;;10434881;28;20226;-79
2024/01/02 16:16:20;;;;;;;42.20;23.57;;;4.20;1.00;;;;;;10409140;28;20229;-80
2024/01/02 16:22:27;;;;;;;44.63;23.73;;;4.20;1.00;;;;;;10387816;28;20232;-79
2024/01/02 16:28:16;;;;;;;61.37;32.43;;;4.20;1.00;;;;;;10415833;28;20188;-80
2024/01/02 16:34:17;;;;;;;38.00;21.53;;;4.20;1.00;;;;;;10402403;28;20246;-81
2024/01/02 16:39:39;;;;;;;37.37;21.80;;;4.10;13.70;;;;;;10428354;28;20226;-79
2024/01/02 16:45:00;;;;;;;32.73;19.30;;;4.20;1.00;;;;;;10443072;28;20199;-82
2024/01/02 16:50:22;;;;;;;28.90;18.90;;;4.20;1.00;;;;;;10440476;28;20203;-78
2024/01/02 16:55:47;;;;;;;34.30;20.67;;;4.10;1.00;;;;;;10400708;28;20283;-80
2024/01/02 17:01:11;;;;;;;32.67;20.13;;;4.10;1.00;;;;;;10409629;28;20219;-79
2024/01/02 17:06:32;;;;;;;27.53;17.00;;;4.00;1.00;;;;;;10441860;28;20223;-79
2024/01/02 17:11:54;;;;;;;33.80;19.53;;;4.00;1.00;;;;;;10442076;28;20202;-79
2024/01/02 17:17:18;;;;;;;44.40;22.60;;;4.00;1.00;;;;;;10431290;28;20200;-78
2024/01/02 17:22:39;;;;;;;55.10;26.27;;;4.10;1.00;;;;;;10399141;28;20242;-80
2024/01/02 17:28:00;;;;;;;50.37;26.97;;;4.10;1.00;;;;;;10385399;28;20267;-81
2024/01/02 17:33:24;;;;;;;50.23;26.30;;;4.10;1.00;;;;;;10399173;28;20214;-79
2024/01/02 17:38:47;;;;;;;53.10;31.00;;;4.10;1.00;;;;;;10412651;28;20222;-79
2024/01/02 17:44:10;;;;;;;44.70;23.57;;;4.10;1.00;;;;;;10398666;28;20381;-80
2024/01/02 17:49:32;;;;;;;43.87;23.37;;;4.00;1.00;;;;;;10416027;28;20475;-79
2024/01/02 17:54:53;;;;;;;42.73;23.87;;;4.00;1.00;;;;;;10414499;28;20341;-78
2024/01/02 18:00:18;;;;;;;40.57;22.37;;;4.00;1.00;;;;;;10399581;28;20314;-79
2024/01/02 18:05:56;;;;;;;48.40;25.73;;;4.00;1.00;;;;;;10438519;28;20199;-81
2024/01/02 18:11:32;;;;;;;42.00;23.47;;;4.00;1.00;;;;;;10439101;28;20523;-79
2024/01/02 18:17:10;;;;;;;44.43;24.07;;;4.00;1.00;;;;;;10423404;28;20232;-80
2024/01/02 18:22:35;;;;;;;46.67;24.23;;;3.90;1.00;;;;;;10439299;28;20223;-79
2024/01/02 18:28:00;;;;;;;46.37;24.57;;;3.90;1.00;;;;;;10423848;28;20226;-78
2024/01/02 18:33:53;;;;;;;42.23;23.50;;;3.90;1.00;;;;;;10437623;28;20208;-79
2024/01/02 18:39:16;;;;;;;47.73;23.73;;;4.00;1.00;;;;;;10395795;28;20457;-81
2024/01/02 18:45:01;;;;;;;42.87;24.67;;;4.00;1.00;;;;;;10377488;28;20212;-81
2024/01/02 18:50:24;;;;;;;39.90;24.03;;;3.90;1.00;;;;;;10398331;28;20249;-81
2024/01/02 18:55:47;;;;;;;51.60;25.17;;;3.90;1.00;;;;;;10448079;28;20232;-81
2024/01/02 19:01:14;;;;;;;41.70;22.70;;;3.90;1.00;;;;;;10403648;28;20231;-82
2024/01/02 19:06:36;;;;;;;44.17;24.80;;;3.90;1.00;;;;;;10419533;28;20246;-80
2024/01/02 19:12:06;;;;;;;46.27;22.57;;;3.80;1.00;;;;;;10433902;28;20488;-81
2024/01/02 19:17:28;;;;;;;38.23;20.40;;;3.80;1.00;;;;;;10409587;28;20202;-81
2024/01/02 19:22:58;;;;;;;43.20;21.33;;;3.70;1.00;;;;;;10381226;28;20245;-80
2024/01/02 19:28:20;;;;;;;39.73;22.40;;;3.70;1.00;;;;;;10396165;28;20382;-81
2024/01/02 19:33:42;;;;;;;46.00;25.70;;;3.70;1.00;;;;;;10394583;28;20218;-81
2024/01/02 19:39:03;;;;;;;39.70;22.97;;;3.70;1.00;;;;;;10384810;28;20231;-81
2024/01/02 19:44:25;;;;;;;45.17;25.30;;;3.80;1.00;;;;;;10394393;28;20202;-79
2024/01/02 19:49:47;;;;;;;44.90;25.27;;;3.80;1.00;;;;;;10398184;28;20197;-82
2024/01/02 19:55:09;;;;;;;39.13;21.40;;;3.70;1.00;;;;;;10403756;28;20224;-81
2024/01/02 20:00:30;;;;;;;35.53;21.13;;;3.60;1.00;;;;;;10419637;28;20227;-81
2024/01/02 20:05:51;;;;;;;35.60;20.63;;;3.60;1.00;;;;;;10429276;28;20212;-81
2024/01/02 20:11:27;;;;;;;33.20;19.00;;;3.40;1.00;;;;;;10444608;28;20201;-81
2024/01/02 20:16:52;;;;;;;37.97;19.80;;;3.40;59.00;;;;;;10444135;28;20476;-79
2024/01/02 20:22:21;;;;;;;37.33;19.33;;;3.40;99.90;;;;;;10405912;28;20309;-80
2024/01/02 20:27:51;;;;;;;29.13;18.30;;;3.40;53.90;;;;;;10415370;28;20273;-79
2024/01/02 20:33:34;;;;;;;34.80;19.70;;;3.40;98.10;;;;;;10401389;28;20209;-81
2024/01/02 20:38:56;;;;;;;29.20;18.03;;;3.30;76.70;;;;;;10386923;28;20243;-82
2024/01/02 20:44:17;;;;;;;34.47;19.77;;;3.30;74.90;;;;;;10400912;28;20214;-82
2024/01/02 20:49:38;;;;;;;36.20;20.90;;;3.30;99.90;;;;;;10404471;28;20565;-80
2024/01/02 20:54:59;;;;;;;42.57;23.33;;;3.20;91.60;;;;;;10400874;28;20597;-81
2024/01/02 21:00:33;;;;;;;38.90;21.53;;;3.20;99.90;;;;;;10388322;28;20223;-79
2024/01/02 21:05:57;;;;;;;37.13;20.90;;;3.20;99.90;;;;;;10441567;28;20416;-79
2024/01/02 21:11:20;;;;;;;42.53;22.23;;;3.20;99.90;;;;;;10441104;28;20197;-79
2024/01/02 21:16:41;;;;;;;30.50;19.00;;;3.20;99.90;;;;;;10426898;28;20248;-79
2024/01/02 21:22:23;;;;;;;37.33;21.63;;;3.10;92.20;;;;;;10406468;28;20238;-80
2024/01/02 21:27:45;;;;;;;38.50;22.33;;;3.10;42.40;;;;;;10400547;28;20197;-79
2024/01/02 21:33:06;;;;;;;37.67;21.43;;;3.10;99.90;;;;;;10399205;28;20261;-81
2024/01/02 21:38:33;;;;;;;38.33;20.73;;;3.10;99.90;;;;;;10424026;28;20198;-79
2024/01/02 21:44:01;;;;;;;37.23;21.33;;;3.00;99.90;;;;;;10439537;28;21011;-79
2024/01/02 21:49:37;;;;;;;39.70;19.23;;;3.10;77.90;;;;;;10428393;28;20280;-79
2024/01/02 21:54:58;;;;;;;34.47;20.53;;;3.00;99.90;;;;;;10416934;28;20248;-79
2024/01/02 22:00:55;;;;;;;31.47;19.23;;;2.90;99.90;;;;;;10401358;28;20219;-81
2024/01/02 22:06:36;;;;;;;29.73;18.93;;;2.90;99.90;;;;;;10519147;28;20498;-79
2024/01/02 22:12:01;;;;;;;34.27;19.53;;;2.90;99.90;;;;;;10503635;28;20491;-79
2024/01/02 22:17:33;;;;;;;31.87;18.93;;;2.90;99.90;;;;;;10487261;28;20226;-79
2024/01/02 22:22:54;;;;;;;31.13;18.50;;;2.80;99.90;;;;;;10477184;28;20398;-78
2024/01/02 22:28:34;;;;;;;29.10;18.27;;;2.80;99.90;;;;;;10476936;28;20202;-80
2024/01/02 22:33:57;;;;;;;29.87;18.33;;;2.90;99.90;;;;;;10476918;28;20235;-78
2024/01/02 22:39:49;;;;;;;28.00;18.50;;;3.00;99.90;;;;;;10461251;28;20308;-80
2024/01/02 22:45:11;;;;;;;28.43;17.63;;;2.90;99.90;;;;;;10386009;28;20232;-79
2024/01/02 22:50:32;;;;;;;27.90;18.60;;;3.00;99.90;;;;;;10374963;28;20211;-79
2024/01/02 22:55:54;;;;;;;29.13;17.87;;;3.00;99.90;;;;;;10436793;28;20266;-79
2024/01/02 23:01:15;;;;;;;32.43;18.50;;;2.90;99.90;;;;;;10436695;28;20269;-79
2024/01/02 23:06:36;;;;;;;30.80;18.30;;;2.90;99.90;;;;;;10422632;28;20275;-78
2024/01/02 23:12:02;;;;;;;30.40;18.87;;;2.90;99.90;;;;;;10436344;28;20211;-79
2024/01/02 23:17:32;;;;;;;31.50;18.80;;;2.90;99.90;;;;;;10416134;28;20201;-79
2024/01/02 23:22:57;;;;;;;33.97;20.23;;;2.90;99.90;;;;;;10396019;28;20464;-80
2024/01/02 23:28:46;;;;;;;39.57;22.13;;;3.00;99.90;;;;;;10396271;28;20189;-80
2024/01/02 23:34:08;;;;;;;34.33;20.27;;;2.90;99.90;;;;;;10381015;28;20209;-79
2024/01/02 23:39:29;;;;;;;38.13;21.90;;;3.00;99.90;;;;;;10395521;28;20532;-78
2024/01/02 23:44:51;;;;;;;41.47;22.30;;;2.90;99.90;;;;;;10397996;28;20227;-78
2024/01/02 23:50:24;;;;;;;38.77;21.43;;;2.80;99.90;;;;;;10384231;28;20434;-79
2024/01/02 23:55:45;;;;;;;39.53;21.53;;;2.70;99.90;;;;;;10435169;28;20248;-79
